Stations météo

réclame
Mon MeteoGroup
Burgos/Villafria, Espagne (8075): Température de l'air & dewpoint: 15.07.2018 21:00:00 - 21.07.2018 21:00:00 (CEST)Burgos/Villafria, Espagne (8075): Vitesse du vent: 15.07.2018 21:00:00 - 21.07.2018 21:00:00 (CEST)Burgos/Villafria, Espagne (8075): Direction du vent: 15.07.2018 21:00:00 - 21.07.2018 21:00:00 (CEST)Burgos/Villafria, Espagne (8075): visibility: 15.07.2018 21:00:00 - 21.07.2018 21:00:00 (CEST)Burgos/Villafria, Espagne (8075): Quantités de précipitations: 15.07.2018 21:00:00 - 21.07.2018 21:00:00 (CEST)
Date & Time tt [°C] td [°C] ff [km/h] ff [knt] dd vv [km] rr [mm]
21.07.2018 21:00:00 17,2 9,6 4 2 - 10 0,0
21.07.2018 20:00:00 17,7 10,3 5 3 NW 10 -
21.07.2018 19:00:00 18,5 9,3 4 2 - 10 0,0
21.07.2018 18:00:00 19,0 9,2 8 4 NNW 10 0,0
21.07.2018 17:00:00 19,8 7,8 8 4 WSW 40 -
21.07.2018 16:00:00 20,0 8,6 5 3 WNW 10 0,0
21.07.2018 15:00:00 19,9 8,9 5 3 WNW 10 0,0
21.07.2018 14:00:00 20,2 8,5 5 3 SW 10 -
21.07.2018 13:00:00 19,4 9,6 4 2 W 10 0,0
21.07.2018 12:00:00 19,8 9,7 8 4 WSW 10 0,0
21.07.2018 11:00:00 18,9 10,2 4 2 - 10 -
21.07.2018 10:00:00 16,6 10,7 8 4 ENE 10 0,0
21.07.2018 09:00:00 14,0 11,2 11 6 ENE 10 0,0
21.07.2018 08:00:00 12,6 11,0 11 6 ENE 10 -
21.07.2018 07:00:00 12,1 10,7 9 5 NE 10 0,0
21.07.2018 06:00:00 12,3 10,5 11 6 NE 10 0,0
21.07.2018 05:00:00 12,5 10,4 15 8 NE 10 -
21.07.2018 04:00:00 12,3 10,5 13 7 NE 10 0,0
21.07.2018 03:00:00 11,3 10,0 11 6 NNE 10 0,0
21.07.2018 02:00:00 12,0 10,4 15 8 NE 10 -
21.07.2018 01:00:00 13,1 10,8 18 10 NNE 10 0,0
21.07.2018 00:00:00 13,8 10,8 22 12 NE 10 0,0
20.07.2018 23:00:00 14,2 11,4 24 13 NNE 10 -
20.07.2018 22:00:00 15,0 11,4 24 13 NNE 10 0,0
20.07.2018 21:00:00 16,2 12,4 28 15 NE 10 0,0
20.07.2018 20:00:00 17,5 12,2 28 15 NNE 10 -
20.07.2018 19:00:00 19,3 12,6 22 12 NE 10 0,0
20.07.2018 18:00:00 19,5 12,5 31 17 NNE 10 0,0
20.07.2018 17:00:00 20,9 13,1 28 15 N 10 -
20.07.2018 16:00:00 21,6 13,8 26 14 NE 10 0,0
20.07.2018 15:00:00 20,4 13,6 28 15 NNE 10 0,0
20.07.2018 14:00:00 19,7 14,1 31 17 NNE 10 -
20.07.2018 13:00:00 19,7 14,3 26 14 ENE 10 0,0
20.07.2018 12:00:00 17,5 14,4 22 12 ENE 10 0,0
20.07.2018 11:00:00 15,9 14,6 21 11 ENE 10 -
20.07.2018 10:00:00 15,4 14,3 21 11 ENE 9 0,0
20.07.2018 09:00:00 14,8 14,2 18 10 NE 4,0 0,0
20.07.2018 08:00:00 14,7 14,2 15 8 NE 8 -
20.07.2018 07:00:00 14,9 14,3 21 11 NE 6 0,0
20.07.2018 06:00:00 15,3 14,0 21 11 NE 10 0,0
20.07.2018 05:00:00 15,5 14,0 21 11 ENE 10 -
20.07.2018 04:00:00 15,6 13,8 24 13 ENE 10 0,0
20.07.2018 03:00:00 15,8 13,6 22 12 ENE 10 0,0
20.07.2018 02:00:00 16,2 14,4 22 12 NE 10 -
20.07.2018 01:00:00 16,4 14,2 22 12 NNE 10 0,0
20.07.2018 00:00:00 16,9 14,7 22 12 NNE 10 0,0
19.07.2018 23:00:00 17,6 14,9 28 15 NE 10 -
19.07.2018 22:00:00 17,6 15,6 26 14 NNE 10 0,0
19.07.2018 21:00:00 19,2 15,5 29 16 NNE 10 0,0
19.07.2018 20:00:00 21,9 16,0 28 15 NNE 10 -
19.07.2018 19:00:00 24,6 16,1 31 17 NNE 10 0,0
19.07.2018 18:00:00 30,0 0,5 13 7 SSW 10 0,0
19.07.2018 17:00:00 29,7 2,0 9 5 SSW 10 -
19.07.2018 16:00:00 29,5 5,5 11 6 WSW 10 0,0
19.07.2018 15:00:00 29,0 5,1 21 11 SW 10 0,0
19.07.2018 14:00:00 28,3 6,4 16 9 SW 50 -
19.07.2018 13:00:00 26,6 12,6 5 3 S 10 0,0
19.07.2018 12:00:00 24,2 15,1 13 7 NNE 10 0,0
19.07.2018 11:00:00 22,3 15,4 13 7 NNE 10 -
19.07.2018 10:00:00 19,9 15,7 16 9 NE 10 0,0
19.07.2018 09:00:00 18,3 15,9 16 9 NE 10 0,0
19.07.2018 08:00:00 16,6 15,5 9 5 ENE 9 -
19.07.2018 07:00:00 15,1 14,5 11 6 ENE 10 0,0
19.07.2018 06:00:00 15,4 14,9 15 8 NE 9 0,0
19.07.2018 05:00:00 15,4 14,9 11 6 ENE 8 -
19.07.2018 04:00:00 15,6 15,0 9 5 NE 9 0,0
19.07.2018 03:00:00 16,4 15,4 11 6 ENE 10 0,0
19.07.2018 02:00:00 17,1 16,1 26 14 ENE 10 -
19.07.2018 01:00:00 17,5 16,4 15 8 NE 10 0,0
19.07.2018 00:00:00 18,0 16,7 18 10 NE 10 0,0
18.07.2018 23:00:00 19,0 14,7 18 10 NE 10 -
18.07.2018 22:00:00 19,9 13,4 13 7 NE 10 0,0
18.07.2018 21:00:00 23,4 13,6 18 10 ENE 10 0,0
18.07.2018 20:00:00 26,2 12,6 24 13 ENE 50 -
18.07.2018 19:00:00 28,4 8,1 13 7 WNW 10 0,0
18.07.2018 18:00:00 28,5 7,7 5 3 W 10 0,0
18.07.2018 17:00:00 27,1 10,3 9 5 SSE 10 -
18.07.2018 16:00:00 26,5 13,9 5 3 E 10 0,0
18.07.2018 15:00:00 24,0 16,5 18 10 NNE 10 0,0
18.07.2018 14:00:00 19,1 17,1 5 3 N 10 -
18.07.2018 13:00:00 20,6 14,9 13 7 N 10 0,0
18.07.2018 12:00:00 24,2 14,3 15 8 NE 10 0,0
18.07.2018 11:00:00 22,2 14,6 15 8 NNE 10 -
18.07.2018 10:00:00 19,4 15,3 21 11 NE 10 0,0
18.07.2018 09:00:00 17,2 15,2 18 10 NE 10 0,0
18.07.2018 08:00:00 16,0 14,9 13 7 ENE 15 -
18.07.2018 07:00:00 15,0 14,5 18 10 ENE 10 0,0
18.07.2018 06:00:00 15,3 14,8 21 11 NE 10 0,0
18.07.2018 05:00:00 15,6 15,0 18 10 NE 10 -
18.07.2018 04:00:00 15,8 15,2 22 12 NE 10 0,0
18.07.2018 03:00:00 16,2 15,4 21 11 NE 10 0,0
18.07.2018 02:00:00 16,4 15,6 16 9 NE 10 -
18.07.2018 01:00:00 16,5 15,5 11 6 NE 10 0,0
18.07.2018 00:00:00 17,5 15,8 18 10 NE 10 0,0
17.07.2018 23:00:00 18,8 16,0 22 12 NNE 10 -
17.07.2018 22:00:00 20,5 15,5 24 13 NE 10 0,0
17.07.2018 21:00:00 23,7 12,0 18 10 ENE 10 0,0
17.07.2018 20:00:00 25,5 12,3 22 12 ENE 60 -
17.07.2018 19:00:00 26,5 12,5 18 10 ENE 10 0,0
17.07.2018 18:00:00 27,0 13,4 16 9 ENE 10 0,0
17.07.2018 17:00:00 26,5 12,9 15 8 E 60 -
17.07.2018 16:00:00 26,1 12,5 11 6 ENE 10 0,0
17.07.2018 15:00:00 26,5 13,3 13 7 NE 10 0,0
17.07.2018 14:00:00 25,6 12,8 13 7 NE 10 -
17.07.2018 13:00:00 24,4 12,7 13 7 ENE 10 0,0
17.07.2018 12:00:00 22,3 12,0 15 8 NE 10 0,0
17.07.2018 11:00:00 20,3 11,5 18 10 NNE 10 -
17.07.2018 10:00:00 18,3 12,1 16 9 ENE 10 0,0
17.07.2018 09:00:00 15,5 12,6 9 5 NNE 10 0,0
17.07.2018 08:00:00 12,9 11,5 15 8 NE 60 -
17.07.2018 07:00:00 11,5 10,7 11 6 NE 10 0,0
17.07.2018 06:00:00 11,7 10,8 15 8 NE 10 0,0
17.07.2018 05:00:00 12,1 10,8 11 6 NE 10 -
17.07.2018 04:00:00 12,2 11,1 15 8 NNE 10 0,0
17.07.2018 03:00:00 12,5 11,6 15 8 NE 10 0,0
17.07.2018 02:00:00 13,0 12,1 15 8 NE 10 -
17.07.2018 01:00:00 13,5 12,2 16 9 NE 10 0,0
17.07.2018 00:00:00 14,2 12,4 15 8 NE 10 0,0
16.07.2018 23:00:00 15,1 12,8 18 10 ENE 10 -
16.07.2018 22:00:00 16,2 13,1 22 12 NE 10 0,0
16.07.2018 21:00:00 18,6 13,5 24 13 ENE 10 0,0
16.07.2018 20:00:00 20,5 13,0 24 13 ENE 10 -
16.07.2018 19:00:00 21,5 12,3 18 10 NE 10 0,0
16.07.2018 18:00:00 22,7 12,3 16 9 NE 10 0,0
16.07.2018 17:00:00 21,7 11,7 15 8 NE 10 -
16.07.2018 16:00:00 20,9 11,5 22 12 NE 10 0,0
16.07.2018 15:00:00 21,5 12,6 24 13 NE 10 0,0
16.07.2018 14:00:00 20,0 12,0 21 11 NNE 10 -
16.07.2018 13:00:00 20,6 11,8 18 10 NNE 10 0,0
16.07.2018 12:00:00 19,2 12,9 11 6 N 10 0,0
16.07.2018 11:00:00 18,1 12,3 15 8 N 10 -
16.07.2018 10:00:00 17,4 13,1 15 8 N 10 0,0
16.07.2018 09:00:00 16,0 12,7 13 7 NE 10 0,0
16.07.2018 08:00:00 14,3 11,6 2 1 E 20 -
16.07.2018 07:00:00 13,9 11,4 11 6 N 10 0,0
16.07.2018 06:00:00 14,9 13,9 11 6 N 10 0,0
16.07.2018 05:00:00 15,0 14,2 9 5 NW 10 -
16.07.2018 04:00:00 15,2 14,2 5 3 WSW 10 0,0
16.07.2018 03:00:00 15,4 14,3 8 4 NNW 10 0,0
16.07.2018 02:00:00 15,8 15,2 15 8 E 10 -
16.07.2018 01:00:00 15,7 14,7 9 5 N 10 1,0
16.07.2018 00:00:00 15,5 14,7 13 7 NE 10 0,4
15.07.2018 23:00:00 15,4 13,6 15 8 E 10 -
15.07.2018 22:00:00 17,4 11,9 18 10 E 10 0,0
15.07.2018 21:00:00 19,6 14,8 21 11 NE 10 0,0

tt = Température de l'air
td = dewpoint
ff = Vitesse du vent
dd = Direction du vent
vv = visibility
rr = Quantités de précipitations

stations d'obs. à proximité